createdAt,value
2023-08-15T00:02:04.051Z,21.20
2023-08-15T00:04:45.687Z,21.30
2023-08-15T00:07:28.350Z,21.30
2023-08-15T00:10:15.550Z,21.30
2023-08-15T00:12:54.490Z,21.30
2023-08-15T00:15:43.024Z,21.40
2023-08-15T00:18:29.036Z,21.50
2023-08-15T00:21:08.448Z,21.50
2023-08-15T00:23:58.617Z,21.60
2023-08-15T00:26:39.055Z,21.70
2023-08-15T00:29:24.168Z,21.80
2023-08-15T00:32:06.580Z,21.90
2023-08-15T00:34:45.230Z,22.00
2023-08-15T00:37:24.391Z,22.10
2023-08-15T00:40:06.466Z,22.20
2023-08-15T00:42:50.830Z,22.20
2023-08-15T00:45:32.549Z,22.30
2023-08-15T00:48:15.929Z,22.40
2023-08-15T00:51:05.098Z,22.40
2023-08-15T00:53:44.000Z,22.50
2023-08-15T00:56:29.655Z,22.60
2023-08-15T00:59:30.130Z,22.60
2023-08-15T01:02:12.968Z,22.70
2023-08-15T01:04:59.779Z,22.80
2023-08-15T01:07:38.447Z,22.90
2023-08-15T01:10:21.496Z,23.00
2023-08-15T01:13:10.216Z,23.00
2023-08-15T01:15:53.774Z,23.10
2023-08-15T01:18:36.388Z,23.10
2023-08-15T01:21:23.804Z,23.20
2023-08-15T01:24:18.575Z,23.30
2023-08-15T01:26:58.894Z,23.40
2023-08-15T01:29:35.038Z,23.50
2023-08-15T01:32:23.042Z,23.50
2023-08-15T01:35:12.726Z,23.60
2023-08-15T01:38:01.153Z,23.70
2023-08-15T01:40:48.216Z,23.70
2023-08-15T01:43:39.880Z,23.90
2023-08-15T01:46:16.802Z,23.90
2023-08-15T01:48:53.199Z,24.00
2023-08-15T01:51:31.188Z,24.00
2023-08-15T01:54:07.032Z,24.10
2023-08-15T01:57:02.170Z,24.20
2023-08-15T01:59:41.413Z,24.30
2023-08-15T02:02:22.890Z,24.30
2023-08-15T02:05:08.560Z,24.40
2023-08-15T02:07:55.156Z,24.40
2023-08-15T02:10:40.937Z,24.50
2023-08-15T02:13:33.245Z,24.50
2023-08-15T02:16:34.114Z,24.70
2023-08-15T02:19:21.705Z,24.80
2023-08-15T02:21:58.068Z,24.80
2023-08-15T02:24:45.203Z,24.90
2023-08-15T02:27:30.241Z,25.00
2023-08-15T02:30:26.213Z,25.00
2023-08-15T02:33:02.594Z,25.10
2023-08-15T02:35:44.778Z,25.20
2023-08-15T02:38:26.246Z,25.30
2023-08-15T02:41:11.475Z,25.40
2023-08-15T02:43:47.252Z,25.50
2023-08-15T02:46:38.175Z,25.60
2023-08-15T02:49:21.843Z,25.70
2023-08-15T02:51:57.843Z,25.80
2023-08-15T02:54:51.684Z,25.90
2023-08-15T02:57:35.116Z,26.00
2023-08-15T03:00:23.669Z,26.00
2023-08-15T03:03:16.412Z,26.10
2023-08-15T03:06:14.974Z,26.10
2023-08-15T03:09:01.899Z,26.20
2023-08-15T03:11:41.366Z,26.30
2023-08-15T03:14:19.196Z,26.40
2023-08-15T03:17:16.772Z,26.50
2023-08-15T03:20:00.196Z,26.60
2023-08-15T03:22:39.817Z,26.60
2023-08-15T03:25:26.768Z,26.80
2023-08-15T03:28:06.914Z,26.80
2023-08-15T03:30:50.688Z,26.90
2023-08-15T03:33:27.447Z,27.00
2023-08-15T03:36:15.979Z,27.00
2023-08-15T03:38:54.464Z,27.10
2023-08-15T03:41:32.420Z,27.20
2023-08-15T03:44:16.772Z,27.20
2023-08-15T03:47:08.488Z,27.30
2023-08-15T03:49:56.332Z,27.40
2023-08-15T03:52:38.919Z,27.50
2023-08-15T03:55:39.896Z,27.60
2023-08-15T03:58:26.068Z,27.70
2023-08-15T04:01:03.265Z,27.80
2023-08-15T04:03:42.460Z,27.80
2023-08-15T04:06:36.580Z,27.90
2023-08-15T04:09:19.480Z,28.00
2023-08-15T04:11:56.325Z,28.00
2023-08-15T04:14:35.004Z,28.10
2023-08-15T04:17:11.529Z,28.10
2023-08-15T04:19:49.694Z,28.20
2023-08-15T04:22:33.491Z,28.30
2023-08-15T04:25:13.867Z,28.30
2023-08-15T04:27:55.883Z,28.30
2023-08-15T04:30:43.061Z,28.40
2023-08-15T04:33:27.431Z,28.40
2023-08-15T04:38:59.925Z,28.50
2023-08-15T04:41:45.272Z,28.60
2023-08-15T04:44:21.933Z,28.60
2023-08-15T04:49:55.563Z,28.70
2023-08-15T04:52:34.242Z,28.80
2023-08-15T04:55:10.170Z,28.80
2023-08-15T04:57:51.703Z,28.90
2023-08-15T05:00:33.964Z,28.90
2023-08-15T05:03:14.191Z,29.00
2023-08-15T05:05:59.963Z,29.10
2023-08-15T05:08:42.245Z,29.20
2023-08-15T05:14:12.833Z,29.40
2023-08-15T05:16:55.035Z,29.50
2023-08-15T05:20:02.907Z,29.50
2023-08-15T05:22:44.433Z,29.50
2023-08-15T05:25:20.814Z,29.60
2023-08-15T05:28:09.694Z,29.70
2023-08-15T05:31:09.373Z,29.80
2023-08-15T05:33:44.834Z,29.80
2023-08-15T05:36:21.027Z,29.90
2023-08-15T05:38:59.872Z,30.00
2023-08-15T05:41:55.484Z,30.10
2023-08-15T05:45:04.261Z,30.10
2023-08-15T05:47:43.770Z,30.20
2023-08-15T05:50:22.174Z,30.20
2023-08-15T05:53:05.573Z,30.30
2023-08-15T05:55:41.352Z,30.30
2023-08-15T05:58:19.927Z,30.40
2023-08-15T06:01:11.175Z,30.40
2023-08-15T06:03:55.495Z,30.40
2023-08-15T06:06:31.082Z,30.40
2023-08-15T06:09:06.464Z,30.40
2023-08-15T06:11:42.786Z,30.50
2023-08-15T06:14:33.312Z,30.50
2023-08-15T06:20:04.497Z,30.60
2023-08-15T06:23:09.187Z,30.70
2023-08-15T06:25:48.420Z,30.70
2023-08-15T06:28:29.939Z,30.70
2023-08-15T06:31:08.724Z,30.70
2023-08-15T06:33:50.382Z,30.80
2023-08-15T06:36:30.112Z,30.80
2023-08-15T06:39:09.005Z,30.90
2023-08-15T06:41:54.823Z,30.90
2023-08-15T06:44:35.131Z,31.00
2023-08-15T06:47:24.659Z,31.00
2023-08-15T06:50:20.849Z,31.00
2023-08-15T06:53:24.161Z,31.10
2023-08-15T06:56:00.399Z,31.20
2023-08-15T06:58:42.278Z,31.20
2023-08-15T07:01:18.919Z,31.30
2023-08-15T07:03:55.385Z,31.20
2023-08-15T07:06:35.864Z,31.20
2023-08-15T07:09:17.865Z,31.20
2023-08-15T07:11:54.277Z,31.30
2023-08-15T07:14:40.501Z,31.30
2023-08-15T07:17:19.876Z,31.40
2023-08-15T07:19:55.842Z,31.50
2023-08-15T07:22:31.859Z,31.60
2023-08-15T07:25:15.515Z,31.60
2023-08-15T07:27:54.190Z,31.50
2023-08-15T07:30:34.248Z,31.50
2023-08-15T07:33:14.044Z,31.60
2023-08-15T07:35:52.236Z,31.60
2023-08-15T07:38:34.964Z,31.60
2023-08-15T07:41:23.319Z,31.70
2023-08-15T07:44:06.986Z,31.80
2023-08-15T07:46:46.912Z,31.80
2023-08-15T07:49:24.538Z,31.90
2023-08-15T07:52:03.209Z,32.00
2023-08-15T07:55:11.413Z,31.90
2023-08-15T07:57:53.640Z,32.00
2023-08-15T08:04:20.427Z,31.90
2023-08-15T08:07:39.540Z,31.90
2023-08-15T08:10:41.422Z,31.80
2023-08-15T08:13:21.807Z,31.80
2023-08-15T08:15:58.185Z,31.80
2023-08-15T08:18:33.725Z,31.80
2023-08-15T08:21:18.063Z,31.80
2023-08-15T08:24:14.937Z,31.70
2023-08-15T08:27:06.415Z,31.70
2023-08-15T08:29:49.696Z,31.70
2023-08-15T08:32:28.643Z,31.60
2023-08-15T08:35:11.271Z,31.50
2023-08-15T08:37:49.157Z,31.50
2023-08-15T08:40:28.002Z,31.40
2023-08-15T08:43:07.576Z,31.30
2023-08-15T08:45:54.796Z,31.20
2023-08-15T08:48:45.004Z,31.20
2023-08-15T08:51:32.670Z,31.10
2023-08-15T08:54:09.704Z,31.10
2023-08-15T08:56:54.410Z,31.00
2023-08-15T08:59:41.823Z,31.00
2023-08-15T09:02:28.118Z,30.90
2023-08-15T09:05:15.704Z,30.90
2023-08-15T09:08:04.331Z,30.80
2023-08-15T09:10:41.049Z,30.80
2023-08-15T09:13:26.121Z,30.80
2023-08-15T09:16:05.320Z,30.70
2023-08-15T09:18:45.905Z,30.70
2023-08-15T09:21:26.422Z,30.70
2023-08-15T09:24:06.874Z,30.60
2023-08-15T09:27:06.192Z,30.60
2023-08-15T09:29:47.366Z,30.60
2023-08-15T09:32:33.443Z,30.50
2023-08-15T09:35:26.830Z,30.50
2023-08-15T09:38:12.023Z,30.40
2023-08-15T09:41:01.442Z,30.30
2023-08-15T09:46:27.731Z,30.30
2023-08-15T09:49:03.692Z,30.30
2023-08-15T09:51:45.557Z,30.30
2023-08-15T09:54:51.307Z,30.30
2023-08-15T09:57:31.158Z,30.30
2023-08-15T10:00:17.654Z,30.30
2023-08-15T10:02:59.389Z,30.30
2023-08-15T10:06:03.628Z,30.20
2023-08-15T10:08:46.754Z,30.20
2023-08-15T10:11:26.484Z,30.30
2023-08-15T10:14:13.791Z,30.20
2023-08-15T10:16:59.160Z,30.20
2023-08-15T10:19:54.612Z,30.20
2023-08-15T10:22:40.090Z,30.20
2023-08-15T10:25:49.735Z,30.20
2023-08-15T10:28:44.988Z,30.20
2023-08-15T10:31:48.685Z,30.20
2023-08-15T10:34:27.044Z,30.20
2023-08-15T10:37:42.607Z,30.20
2023-08-15T10:40:23.581Z,30.20
2023-08-15T10:43:17.481Z,30.20
2023-08-15T10:46:20.428Z,30.10
2023-08-15T10:49:20.849Z,30.10
2023-08-15T10:52:25.579Z,30.10
2023-08-15T10:55:14.012Z,30.10
2023-08-15T10:57:54.672Z,30.00
2023-08-15T11:00:42.292Z,30.00
2023-08-15T11:03:22.696Z,30.00
2023-08-15T11:06:16.078Z,30.00
2023-08-15T11:08:55.818Z,29.90
2023-08-15T11:11:47.807Z,29.90
2023-08-15T11:14:27.594Z,29.80
2023-08-15T11:17:10.143Z,29.80
2023-08-15T11:20:04.009Z,29.80
2023-08-15T11:22:44.573Z,29.80
2023-08-15T11:25:32.007Z,29.70
2023-08-15T11:28:14.593Z,29.70
2023-08-15T11:30:52.820Z,29.70
2023-08-15T11:33:53.134Z,29.60
2023-08-15T11:36:50.575Z,29.60
2023-08-15T11:39:27.122Z,29.60
2023-08-15T11:42:21.702Z,29.60
2023-08-15T11:45:28.524Z,29.60
2023-08-15T11:48:18.191Z,29.60
2023-08-15T11:54:20.287Z,29.70
2023-08-15T11:57:02.489Z,29.70
2023-08-15T11:59:44.851Z,29.60
2023-08-15T12:02:21.316Z,29.70
2023-08-15T12:05:06.328Z,29.60
2023-08-15T12:07:56.366Z,29.70
2023-08-15T12:10:35.552Z,29.70
2023-08-15T12:13:49.274Z,29.70
2023-08-15T12:16:37.662Z,29.80
2023-08-15T12:19:13.847Z,29.70
2023-08-15T12:21:55.153Z,29.80
2023-08-15T12:27:42.137Z,29.80
2023-08-15T12:30:23.146Z,29.80
2023-08-15T12:33:00.095Z,29.90
2023-08-15T12:35:36.155Z,29.90
2023-08-15T12:38:13.002Z,29.90
2023-08-15T12:41:03.925Z,29.90
2023-08-15T12:43:40.871Z,29.80
2023-08-15T12:46:32.825Z,29.80
2023-08-15T12:49:20.042Z,29.80
2023-08-15T12:52:02.879Z,29.70
2023-08-15T12:54:46.615Z,29.40
2023-08-15T12:57:38.722Z,29.20
2023-08-15T13:00:27.430Z,28.90
2023-08-15T13:03:04.500Z,28.50
2023-08-15T13:08:50.458Z,27.70
2023-08-15T13:11:26.621Z,27.50
2023-08-15T13:19:51.254Z,26.80
2023-08-15T13:22:31.783Z,26.70
2023-08-15T13:25:21.134Z,26.60
2023-08-15T13:28:12.989Z,26.50
2023-08-15T13:30:54.360Z,26.40
2023-08-15T13:34:10.598Z,26.30
2023-08-15T13:36:50.675Z,26.20
2023-08-15T13:39:31.130Z,26.10
2023-08-15T13:42:48.194Z,26.00
2023-08-15T13:45:24.273Z,26.00
2023-08-15T13:48:08.393Z,25.90
2023-08-15T13:50:46.062Z,25.80
2023-08-15T13:56:56.292Z,25.80
2023-08-15T13:59:36.838Z,25.60
2023-08-15T14:02:16.221Z,25.40
2023-08-15T14:04:57.471Z,25.20
2023-08-15T14:10:37.985Z,25.00
2023-08-15T14:13:15.047Z,25.00
2023-08-15T14:15:53.162Z,25.00
2023-08-15T14:18:33.570Z,25.00
2023-08-15T14:24:24.387Z,24.90
2023-08-15T14:27:13.324Z,24.80
2023-08-15T14:29:51.758Z,24.70
2023-08-15T14:32:38.765Z,24.60
2023-08-15T14:35:16.828Z,24.60
2023-08-15T14:38:08.659Z,24.50
2023-08-15T14:41:03.749Z,24.50
2023-08-15T14:43:39.447Z,24.50
2023-08-15T14:46:16.262Z,24.50
2023-08-15T14:48:52.502Z,24.50
2023-08-15T14:52:00.830Z,24.50
2023-08-15T14:55:00.268Z,24.40
2023-08-15T14:57:46.322Z,24.30
2023-08-15T15:00:30.535Z,24.30
2023-08-15T15:03:04.812Z,24.20
2023-08-15T15:05:40.503Z,24.20
2023-08-15T15:08:16.409Z,24.10
2023-08-15T15:11:03.362Z,24.10
2023-08-15T15:13:47.464Z,24.10
2023-08-15T15:16:24.836Z,24.10
2023-08-15T15:19:00.960Z,24.10
2023-08-15T15:21:38.715Z,24.10
2023-08-15T15:24:17.485Z,24.00
2023-08-15T15:26:58.310Z,23.90
2023-08-15T15:29:34.068Z,23.90
2023-08-15T15:32:13.677Z,23.90
2023-08-15T15:34:49.572Z,23.90
2023-08-15T15:37:28.030Z,23.80
2023-08-15T15:40:05.371Z,23.70
2023-08-15T15:42:47.623Z,23.70
2023-08-15T15:45:27.446Z,23.60
2023-08-15T15:48:03.951Z,23.50
2023-08-15T15:50:43.855Z,23.60
2023-08-15T15:53:18.898Z,23.60
2023-08-15T15:55:55.453Z,23.60
2023-08-15T15:58:40.018Z,23.50
2023-08-15T16:01:19.339Z,23.40
2023-08-15T16:03:55.487Z,23.40
2023-08-15T16:06:30.851Z,23.40
2023-08-15T16:09:30.440Z,23.30
2023-08-15T16:12:06.133Z,23.30
2023-08-15T16:14:46.569Z,23.20
2023-08-15T16:17:28.108Z,23.10
2023-08-15T16:20:11.028Z,23.10
2023-08-15T16:22:48.279Z,23.10
2023-08-15T16:25:43.762Z,23.10
2023-08-15T16:28:24.023Z,22.90
2023-08-15T16:34:00.301Z,22.60
2023-08-15T16:36:45.313Z,22.50
2023-08-15T16:39:20.538Z,22.40
2023-08-15T16:41:56.436Z,22.40
2023-08-15T16:44:31.739Z,22.40
2023-08-15T16:49:59.285Z,22.30
2023-08-15T16:52:34.362Z,22.20
2023-08-15T16:55:10.966Z,22.30
2023-08-15T16:57:46.076Z,22.20
2023-08-15T17:00:27.202Z,22.10
2023-08-15T17:03:05.414Z,21.90
2023-08-15T17:05:50.648Z,21.80
2023-08-15T17:08:26.079Z,21.60
2023-08-15T17:11:03.380Z,21.50
2023-08-15T17:13:38.586Z,21.50
2023-08-15T17:16:14.792Z,21.50
2023-08-15T17:18:55.149Z,21.30
2023-08-15T17:21:31.227Z,21.10
2023-08-15T17:24:08.579Z,21.00
2023-08-15T17:26:45.165Z,20.90
2023-08-15T17:32:16.425Z,20.80
2023-08-15T17:34:55.632Z,20.80
2023-08-15T17:37:38.556Z,20.80
2023-08-15T17:40:15.408Z,20.80
2023-08-15T17:42:52.736Z,20.80
2023-08-15T17:45:27.995Z,20.80
2023-08-15T17:48:03.754Z,20.70
2023-08-15T17:50:47.142Z,20.70
2023-08-15T17:53:30.126Z,20.60
2023-08-15T17:56:06.205Z,20.50
2023-08-15T17:58:55.455Z,20.30
2023-08-15T18:01:34.716Z,20.10
2023-08-15T18:04:12.698Z,20.00
2023-08-15T18:06:52.794Z,20.00
2023-08-15T18:09:28.267Z,19.90
2023-08-15T18:12:06.867Z,19.70
2023-08-15T18:14:50.942Z,19.50
2023-08-15T18:17:28.768Z,19.60
2023-08-15T18:20:06.736Z,19.60
2023-08-15T18:22:50.682Z,19.60
2023-08-15T18:25:33.401Z,19.50
2023-08-15T18:28:08.593Z,19.40
2023-08-15T18:30:44.419Z,19.40
2023-08-15T18:33:21.444Z,19.50
2023-08-15T18:36:00.476Z,19.60
2023-08-15T18:38:41.722Z,19.70
2023-08-15T18:41:16.982Z,19.80
2023-08-15T18:43:52.576Z,19.80
2023-08-15T18:46:28.486Z,19.80
2023-08-15T18:49:03.769Z,19.80
2023-08-15T18:51:39.395Z,19.80
2023-08-15T18:54:17.541Z,19.90
2023-08-15T18:56:53.649Z,19.90
2023-08-15T18:59:29.454Z,19.90
2023-08-15T19:02:04.690Z,19.80
2023-08-15T19:04:39.861Z,19.60
2023-08-15T19:07:15.023Z,19.40
2023-08-15T19:09:55.403Z,19.20
2023-08-15T19:12:33.294Z,19.00
2023-08-15T19:15:09.339Z,18.80
2023-08-15T19:17:45.972Z,18.80
2023-08-15T19:20:24.017Z,18.80
2023-08-15T19:22:59.907Z,18.80
2023-08-15T19:25:38.598Z,18.60
2023-08-15T19:28:18.411Z,18.50
2023-08-15T19:30:53.468Z,18.50
2023-08-15T19:33:28.980Z,18.50
2023-08-15T19:36:04.005Z,18.40
2023-08-15T19:38:40.418Z,18.50
2023-08-15T19:41:19.065Z,18.40
2023-08-15T19:43:59.448Z,18.40
2023-08-15T19:46:35.403Z,18.40
2023-08-15T19:49:11.582Z,18.40
2023-08-15T19:51:46.775Z,18.40
2023-08-15T19:54:21.752Z,18.50
2023-08-15T19:57:00.764Z,18.60
2023-08-15T19:59:39.005Z,18.60
2023-08-15T20:02:18.353Z,18.60
2023-08-15T20:04:58.874Z,18.50
2023-08-15T20:07:38.552Z,18.20
2023-08-15T20:10:15.129Z,18.00
2023-08-15T20:12:55.181Z,18.00
2023-08-15T20:15:34.100Z,17.90
2023-08-15T20:18:09.996Z,17.90
2023-08-15T20:21:01.134Z,17.90
2023-08-15T20:23:36.518Z,17.80
2023-08-15T20:26:11.754Z,17.80
2023-08-15T20:28:50.321Z,17.80
2023-08-15T20:31:25.611Z,17.70
2023-08-15T20:34:01.771Z,17.70
2023-08-15T20:36:36.755Z,17.70
2023-08-15T20:39:12.404Z,17.80
2023-08-15T20:41:49.004Z,17.90
2023-08-15T20:44:28.130Z,18.00
2023-08-15T20:47:05.532Z,18.10
2023-08-15T20:49:41.547Z,18.30
2023-08-15T20:52:18.794Z,18.30
2023-08-15T20:54:54.368Z,18.40
2023-08-15T20:57:30.461Z,18.40
2023-08-15T21:00:09.860Z,18.50
2023-08-15T21:02:45.549Z,18.60
2023-08-15T21:05:21.038Z,18.70
2023-08-15T21:07:56.661Z,18.70
2023-08-15T21:10:32.444Z,18.80
2023-08-15T21:13:08.078Z,18.90
2023-08-15T21:15:47.112Z,18.90
2023-08-15T21:18:23.002Z,19.00
2023-08-15T21:20:58.118Z,19.00
2023-08-15T21:23:35.852Z,19.00
2023-08-15T21:26:11.354Z,19.00
2023-08-15T21:28:46.437Z,19.00
2023-08-15T21:31:24.975Z,19.00
2023-08-15T21:34:01.290Z,19.00
2023-08-15T21:36:37.138Z,19.00
2023-08-15T21:39:12.790Z,19.00
2023-08-15T21:41:50.337Z,19.00
2023-08-15T21:44:26.058Z,19.00
2023-08-15T21:47:05.205Z,19.00
2023-08-15T21:49:40.084Z,19.10
2023-08-15T21:52:16.086Z,19.10
2023-08-15T21:54:51.180Z,19.10
2023-08-15T21:57:26.963Z,19.10
2023-08-15T22:00:02.263Z,19.10
2023-08-15T22:02:40.637Z,19.10
2023-08-15T22:05:17.434Z,19.20
2023-08-15T22:07:53.109Z,19.20
2023-08-15T22:10:28.886Z,19.20
2023-08-15T22:13:04.343Z,19.20
2023-08-15T22:15:39.772Z,19.20
2023-08-15T22:18:21.005Z,19.20
2023-08-15T22:20:59.157Z,19.20
2023-08-15T22:23:45.568Z,19.20
2023-08-15T22:26:20.980Z,19.20
2023-08-15T22:29:00.121Z,19.20
2023-08-15T22:31:37.551Z,19.20
2023-08-15T22:34:22.319Z,19.10
2023-08-15T22:36:58.328Z,19.00
2023-08-15T22:39:37.544Z,19.00
2023-08-15T22:42:22.529Z,19.00
2023-08-15T22:44:59.412Z,19.00
2023-08-15T22:47:36.030Z,18.90
2023-08-15T22:50:21.019Z,18.80
2023-08-15T22:53:00.101Z,18.80
2023-08-15T22:55:37.608Z,18.70
2023-08-15T22:58:16.640Z,18.80
2023-08-15T23:00:56.412Z,18.80
2023-08-15T23:03:33.432Z,18.80
2023-08-15T23:06:16.309Z,18.70
2023-08-15T23:08:52.978Z,18.40
2023-08-15T23:11:33.151Z,18.30
2023-08-15T23:14:12.214Z,18.30
2023-08-15T23:16:53.082Z,18.30
2023-08-15T23:19:39.156Z,18.30
2023-08-15T23:22:19.593Z,18.40
2023-08-15T23:25:01.139Z,18.40
2023-08-15T23:27:36.658Z,18.40
2023-08-15T23:30:15.886Z,18.30
2023-08-15T23:32:55.111Z,18.40
2023-08-15T23:35:35.363Z,18.40
2023-08-15T23:38:14.659Z,18.40
2023-08-15T23:40:51.065Z,18.50
2023-08-15T23:43:35.514Z,18.60
2023-08-15T23:46:18.160Z,18.60
2023-08-15T23:48:55.395Z,18.60
2023-08-15T23:51:32.668Z,18.70
2023-08-15T23:54:12.282Z,18.70
2023-08-15T23:56:48.305Z,18.70
2023-08-15T23:59:27.309Z,18.80
